Time;durP1;ratioP1;P1;durP2;ratioP2;P2;SDS_P1;SDS_P2;PMS_P1;PMS_P2;Temp;Humidity;BMP_temperature;BMP_pressure;BME280_temperature;BME280_humidity;BME280_pressure;Samples;Min_cycle;Max_cycle;Signal;HPM_P1;HPM_P2
2022/02/13 00:00:09;;;;;;;10.15;5.43;;;4.80;63.30;;;;;;5071679;28;20103;-67
2022/02/13 00:02:36;;;;;;;11.75;5.60;;;4.80;62.60;;;;;;5075548;28;20017;-67
2022/02/13 00:05:03;;;;;;;11.85;5.82;;;4.80;62.70;;;;;;5082122;28;20024;-67
2022/02/13 00:07:30;;;;;;;12.55;5.65;;;4.70;63.00;;;;;;5072526;28;20577;-67
2022/02/13 00:09:56;;;;;;;10.52;5.45;;;4.70;63.20;;;;;;5072321;28;20379;-67
2022/02/13 00:12:22;;;;;;;16.02;6.10;;;4.70;63.20;;;;;;5082882;28;20039;-67
2022/02/13 00:14:47;;;;;;;14.77;4.93;;;4.70;63.40;;;;;;5092757;28;20111;-67
2022/02/13 00:17:13;;;;;;;10.65;5.57;;;4.60;63.30;;;;;;5092344;28;20031;-67
2022/02/13 00:19:39;;;;;;;11.13;5.65;;;4.60;63.40;;;;;;5091852;28;20028;-67
2022/02/13 00:22:04;;;;;;;8.98;5.25;;;4.60;63.50;;;;;;5093058;28;20019;-67
2022/02/13 00:24:30;;;;;;;12.07;6.05;;;4.60;63.50;;;;;;5092353;28;20028;-67
2022/02/13 00:26:56;;;;;;;9.07;5.00;;;4.60;63.60;;;;;;5092254;28;20033;-67
2022/02/13 00:29:22;;;;;;;12.50;5.88;;;4.50;63.60;;;;;;5091293;28;20024;-68
2022/02/13 00:31:47;;;;;;;12.80;5.35;;;4.50;63.70;;;;;;5092073;28;20402;-67
2022/02/13 00:34:13;;;;;;;10.98;5.60;;;4.50;63.90;;;;;;5092286;28;20379;-67
2022/02/13 00:36:39;;;;;;;10.75;5.70;;;4.40;64.10;;;;;;5090408;28;20087;-67
2022/02/13 00:39:06;;;;;;;12.82;6.07;;;4.40;64.20;;;;;;5085957;28;20036;-67
2022/02/13 00:41:32;;;;;;;12.98;6.10;;;4.40;64.20;;;;;;5071566;28;20066;-67
2022/02/13 00:43:58;;;;;;;12.73;6.20;;;4.30;64.30;;;;;;5072872;28;20039;-67
2022/02/13 00:46:24;;;;;;;15.43;6.65;;;4.30;64.40;;;;;;5071810;28;20033;-67
2022/02/13 00:48:50;;;;;;;11.20;5.75;;;4.30;64.60;;;;;;5071210;28;20040;-67
2022/02/13 00:51:15;;;;;;;11.95;6.55;;;4.20;64.70;;;;;;5066210;28;20028;-67
2022/02/13 00:53:41;;;;;;;11.05;5.90;;;4.20;64.80;;;;;;5067718;28;20040;-67
2022/02/13 00:56:07;;;;;;;12.27;5.88;;;4.20;64.90;;;;;;5069144;28;20035;-67
2022/02/13 00:58:33;;;;;;;10.15;5.97;;;4.20;65.00;;;;;;5071671;28;20032;-66
2022/02/13 01:00:59;;;;;;;9.48;5.35;;;4.10;65.10;;;;;;5070063;28;20036;-67
2022/02/13 01:03:25;;;;;;;10.23;5.90;;;4.20;65.20;;;;;;5070432;28;20033;-67
2022/02/13 01:05:50;;;;;;;11.38;6.30;;;4.10;65.30;;;;;;5071032;28;20038;-67
2022/02/13 01:08:16;;;;;;;10.95;6.78;;;4.10;65.30;;;;;;5069151;28;20514;-68
2022/02/13 01:10:42;;;;;;;11.93;6.10;;;4.10;65.40;;;;;;5070036;28;20033;-67
2022/02/13 01:13:07;;;;;;;10.60;5.85;;;4.00;65.40;;;;;;5070775;28;20036;-67
2022/02/13 01:15:33;;;;;;;10.43;6.43;;;4.00;65.50;;;;;;5070519;28;20371;-67
2022/02/13 01:17:59;;;;;;;14.48;6.60;;;4.00;65.60;;;;;;5069925;28;20609;-67
2022/02/13 01:20:24;;;;;;;11.43;5.75;;;4.00;65.60;;;;;;5066902;28;20117;-67
2022/02/13 01:22:50;;;;;;;10.18;5.57;;;3.90;65.60;;;;;;5070974;28;20036;-67
2022/02/13 01:25:15;;;;;;;9.55;5.90;;;3.90;65.80;;;;;;5071272;28;20028;-67
2022/02/13 01:27:41;;;;;;;9.52;5.57;;;3.90;65.90;;;;;;5070783;28;20086;-66
2022/02/13 01:30:07;;;;;;;12.93;6.85;;;3.90;66.00;;;;;;5062757;28;20032;-67
2022/02/13 01:32:33;;;;;;;11.65;6.18;;;3.80;66.20;;;;;;5090954;28;20028;-66
2022/02/13 01:34:59;;;;;;;13.80;6.93;;;3.80;66.20;;;;;;5091051;28;20047;-66
2022/02/13 01:37:24;;;;;;;12.80;6.65;;;3.80;66.30;;;;;;5088366;28;20040;-66
2022/02/13 01:39:50;;;;;;;12.93;5.88;;;3.80;66.40;;;;;;5082526;28;20024;-66
2022/02/13 01:42:15;;;;;;;13.85;6.32;;;3.80;66.40;;;;;;5081048;28;20174;-66
2022/02/13 01:44:41;;;;;;;10.23;6.82;;;3.80;66.50;;;;;;5083632;28;20492;-66
2022/02/13 01:47:08;;;;;;;11.80;6.38;;;3.80;66.60;;;;;;5091093;28;20116;-66
2022/02/13 01:49:33;;;;;;;13.40;6.40;;;3.80;66.70;;;;;;5072632;28;20029;-66
2022/02/13 01:52:02;;;;;;;10.55;5.78;;;3.80;66.70;;;;;;5070692;28;20043;-67
2022/02/13 01:54:28;;;;;;;10.20;5.80;;;3.70;66.60;;;;;;5070512;28;20955;-66
2022/02/13 01:56:55;;;;;;;10.57;5.90;;;3.80;66.70;;;;;;5074688;28;20115;-67
2022/02/13 01:59:22;;;;;;;11.85;6.13;;;3.80;66.70;;;;;;5090350;28;20020;-67
2022/02/13 02:01:47;;;;;;;9.93;6.25;;;3.80;66.80;;;;;;5086896;28;20036;-67
2022/02/13 02:04:13;;;;;;;13.32;6.38;;;3.80;66.70;;;;;;5071829;28;20035;-67
2022/02/13 02:06:39;;;;;;;15.80;6.25;;;3.80;66.90;;;;;;5089275;28;20032;-67
2022/02/13 02:09:06;;;;;;;10.85;5.93;;;3.80;66.90;;;;;;5089097;28;20419;-67
2022/02/13 02:11:32;;;;;;;11.35;6.20;;;3.70;67.00;;;;;;5078684;28;20119;-67
2022/02/13 02:13:58;;;;;;;10.02;6.13;;;3.70;67.00;;;;;;5070064;28;20354;-67
2022/02/13 02:16:24;;;;;;;9.75;6.30;;;3.70;67.00;;;;;;5069898;28;20036;-67
2022/02/13 02:18:49;;;;;;;12.57;5.85;;;3.70;67.10;;;;;;5069359;28;20029;-67
2022/02/13 02:21:15;;;;;;;11.70;6.00;;;3.70;67.20;;;;;;5051254;28;20081;-67
2022/02/13 02:23:41;;;;;;;11.43;6.30;;;3.70;67.20;;;;;;5084209;28;20036;-67
2022/02/13 02:26:08;;;;;;;7.47;5.15;;;3.70;67.30;;;;;;5078962;28;20462;-67
2022/02/13 02:28:34;;;;;;;10.00;5.68;;;3.70;67.30;;;;;;5071007;28;20024;-68
2022/02/13 02:31:00;;;;;;;9.63;5.00;;;3.60;67.20;;;;;;5078876;28;20021;-67
2022/02/13 02:33:27;;;;;;;11.45;5.88;;;3.60;67.30;;;;;;5085411;28;20103;-67
2022/02/13 02:35:54;;;;;;;9.38;5.43;;;3.60;67.50;;;;;;5077823;28;20082;-67
2022/02/13 02:38:20;;;;;;;9.20;6.15;;;3.60;67.50;;;;;;5069475;28;20122;-67
2022/02/13 02:40:46;;;;;;;11.95;6.43;;;3.60;67.50;;;;;;5072414;28;20043;-68
2022/02/13 02:43:11;;;;;;;11.40;5.28;;;3.60;67.70;;;;;;5064927;28;20502;-67
2022/02/13 02:45:37;;;;;;;12.15;5.78;;;3.60;67.70;;;;;;5066092;28;20406;-67
2022/02/13 02:48:03;;;;;;;12.13;6.35;;;3.60;67.90;;;;;;5066536;28;20086;-67
2022/02/13 02:50:29;;;;;;;13.93;6.53;;;3.50;67.80;;;;;;5068092;28;20512;-67
2022/02/13 02:52:54;;;;;;;10.25;5.68;;;3.50;68.50;;;;;;5066421;28;20032;-67
2022/02/13 02:55:20;;;;;;;10.63;6.07;;;3.50;68.00;;;;;;5062442;28;20033;-67
2022/02/13 02:57:46;;;;;;;10.60;5.80;;;3.50;68.10;;;;;;5068835;28;20443;-67
2022/02/13 03:00:12;;;;;;;11.57;5.13;;;3.40;68.10;;;;;;5072334;28;20114;-67
2022/02/13 03:02:38;;;;;;;10.45;6.00;;;3.40;68.20;;;;;;5065218;28;20036;-67
2022/02/13 03:05:04;;;;;;;11.95;5.85;;;3.40;68.40;;;;;;5066163;28;20028;-67
2022/02/13 03:07:30;;;;;;;11.02;6.03;;;3.30;68.30;;;;;;5068265;28;20510;-67
2022/02/13 03:09:56;;;;;;;9.77;6.18;;;3.30;68.50;;;;;;5067817;28;20028;-67
2022/02/13 03:12:21;;;;;;;12.07;5.90;;;3.30;68.40;;;;;;5068826;28;20067;-67
2022/02/13 03:14:47;;;;;;;9.38;5.60;;;3.30;68.50;;;;;;5069329;28;20048;-66
2022/02/13 03:17:13;;;;;;;9.15;5.30;;;3.30;68.40;;;;;;5079595;28;20028;-67
2022/02/13 03:19:39;;;;;;;10.73;5.65;;;3.30;68.30;;;;;;5088437;28;20482;-67
2022/02/13 03:22:06;;;;;;;12.93;6.22;;;3.40;68.20;;;;;;5088060;28;20032;-67
2022/02/13 03:24:32;;;;;;;10.52;6.25;;;3.30;68.20;;;;;;5087566;28;20453;-67
2022/02/13 03:26:58;;;;;;;10.48;5.97;;;3.30;68.20;;;;;;5085606;28;20105;-65
2022/02/13 03:29:24;;;;;;;11.40;6.13;;;3.30;68.20;;;;;;5088497;28;20032;-65
2022/02/13 03:31:50;;;;;;;8.65;6.00;;;3.30;68.30;;;;;;5087462;28;20024;-65
2022/02/13 03:34:15;;;;;;;13.63;7.75;;;3.30;68.40;;;;;;5070581;28;20059;-65
2022/02/13 03:36:41;;;;;;;8.57;5.75;;;3.30;68.40;;;;;;5088911;28;20052;-65
2022/02/13 03:39:07;;;;;;;9.02;5.68;;;3.20;68.30;;;;;;5088848;28;20016;-65
2022/02/13 03:41:33;;;;;;;9.05;5.65;;;3.30;68.40;;;;;;5088456;28;20016;-64
2022/02/13 03:43:59;;;;;;;13.13;6.15;;;3.20;68.40;;;;;;5087468;28;20040;-65
2022/02/13 03:46:25;;;;;;;11.57;5.90;;;3.20;68.40;;;;;;5088919;28;20020;-65
2022/02/13 03:48:51;;;;;;;11.30;5.45;;;3.20;68.40;;;;;;5073197;28;20043;-65
2022/02/13 03:51:17;;;;;;;10.15;5.88;;;3.20;68.40;;;;;;5068559;28;20033;-65
2022/02/13 03:53:42;;;;;;;9.10;5.30;;;3.20;68.50;;;;;;5068670;28;20467;-65
2022/02/13 03:56:08;;;;;;;11.43;5.85;;;3.20;68.50;;;;;;5068699;28;20447;-64
2022/02/13 03:58:34;;;;;;;10.85;5.55;;;3.20;68.60;;;;;;5068547;28;20454;-65
2022/02/13 04:01:00;;;;;;;10.98;5.97;;;3.20;68.60;;;;;;5068091;28;20021;-65
2022/02/13 04:03:27;;;;;;;9.05;5.50;;;3.20;68.60;;;;;;5074394;28;20024;-65
2022/02/13 04:05:54;;;;;;;9.63;5.85;;;3.20;68.70;;;;;;5076765;28;20195;-65
2022/02/13 04:08:21;;;;;;;13.73;5.95;;;3.20;68.70;;;;;;5068558;28;20521;-65
2022/02/13 04:10:47;;;;;;;8.52;5.18;;;3.20;69.40;;;;;;5068140;28;20028;-65
2022/02/13 04:13:12;;;;;;;12.00;5.00;;;3.10;68.80;;;;;;5068305;28;20048;-65
2022/02/13 04:15:38;;;;;;;10.10;5.32;;;3.10;68.70;;;;;;5068641;28;20029;-65
2022/02/13 04:18:14;;;;;;;13.35;6.40;;;3.20;68.80;;;;;;5067968;28;20029;-65
2022/02/13 04:20:40;;;;;;;9.50;5.45;;;3.10;68.80;;;;;;5065744;28;20027;-64
2022/02/13 04:23:06;;;;;;;8.43;4.70;;;3.20;68.80;;;;;;5068005;28;20066;-64
2022/02/13 04:25:32;;;;;;;8.07;4.90;;;3.20;68.80;;;;;;5088677;28;20093;-65
2022/02/13 04:27:58;;;;;;;11.48;5.07;;;3.10;68.80;;;;;;5072097;28;20522;-65
2022/02/13 04:30:23;;;;;;;9.68;5.32;;;3.20;68.80;;;;;;5067913;28;20090;-65
2022/02/13 04:32:50;;;;;;;8.90;5.32;;;3.20;68.80;;;;;;5064463;28;20379;-65
2022/02/13 04:35:15;;;;;;;12.10;5.75;;;3.20;68.70;;;;;;5061725;28;20478;-66
2022/02/13 04:37:41;;;;;;;10.18;4.80;;;3.20;68.70;;;;;;5070617;28;20048;-66
2022/02/13 04:40:08;;;;;;;7.05;4.60;;;3.20;68.80;;;;;;5067898;28;20052;-66
2022/02/13 04:42:33;;;;;;;7.70;5.20;;;3.20;68.80;;;;;;5064581;28;20522;-65
2022/02/13 04:44:59;;;;;;;8.98;5.05;;;3.20;68.90;;;;;;5069207;28;20024;-65
2022/02/13 04:47:25;;;;;;;8.85;4.82;;;3.20;68.90;;;;;;5070655;28;20540;-65
2022/02/13 04:49:51;;;;;;;8.90;5.38;;;3.20;68.90;;;;;;5069931;28;20043;-65
2022/02/13 04:52:17;;;;;;;10.90;5.63;;;3.20;69.00;;;;;;5075338;28;20035;-65
2022/02/13 04:54:43;;;;;;;9.77;6.05;;;3.20;69.00;;;;;;5071449;28;20029;-65
2022/02/13 04:57:09;;;;;;;12.70;5.25;;;3.20;69.00;;;;;;5070294;28;20028;-65
2022/02/13 04:59:37;;;;;;;8.20;4.97;;;3.20;69.00;;;;;;5070284;28;20099;-65
2022/02/13 05:02:03;;;;;;;11.27;5.38;;;3.20;69.10;;;;;;5070125;28;20029;-65
2022/02/13 05:04:28;;;;;;;8.93;5.22;;;3.10;68.90;;;;;;5069032;28;20028;-65
2022/02/13 05:06:54;;;;;;;11.30;5.45;;;3.10;69.00;;;;;;5070185;28;20043;-65
2022/02/13 05:09:20;;;;;;;9.68;5.18;;;3.10;69.00;;;;;;5069804;28;20032;-66
2022/02/13 05:11:45;;;;;;;9.60;5.43;;;3.10;69.00;;;;;;5071608;28;20044;-66
2022/02/13 05:14:11;;;;;;;8.80;4.60;;;3.10;69.10;;;;;;5080973;28;20036;-66
2022/02/13 05:16:37;;;;;;;7.57;5.28;;;3.10;69.00;;;;;;5091955;28;20028;-65
2022/02/13 05:19:02;;;;;;;7.97;5.45;;;3.10;69.00;;;;;;5080909;28;20116;-65
2022/02/13 05:21:28;;;;;;;7.55;4.57;;;3.10;69.20;;;;;;5074544;28;20032;-66
2022/02/13 05:23:54;;;;;;;10.60;5.03;;;3.00;69.20;;;;;;5091240;28;20069;-65
2022/02/13 05:26:19;;;;;;;8.85;5.88;;;3.10;69.30;;;;;;5091442;28;20024;-66
2022/02/13 05:28:45;;;;;;;9.27;5.57;;;3.00;69.40;;;;;;5090090;28;20024;-66
2022/02/13 05:31:11;;;;;;;10.70;6.32;;;3.00;69.30;;;;;;5076053;28;20043;-66
2022/02/13 05:33:36;;;;;;;12.45;5.40;;;3.00;69.50;;;;;;5073776;28;20028;-65
2022/02/13 05:36:02;;;;;;;6.97;4.43;;;3.00;69.40;;;;;;5089838;28;20139;-65
2022/02/13 05:38:28;;;;;;;7.45;5.13;;;3.00;69.40;;;;;;5071109;28;20044;-65
2022/02/13 05:40:54;;;;;;;8.43;5.00;;;3.00;69.50;;;;;;5070366;28;20029;-65
2022/02/13 05:43:19;;;;;;;10.98;5.80;;;3.00;69.60;;;;;;5070726;28;20060;-65
2022/02/13 05:45:45;;;;;;;8.73;5.40;;;3.00;69.60;;;;;;5069546;28;20048;-66
2022/02/13 05:48:14;;;;;;;10.18;5.50;;;3.00;69.70;;;;;;5074121;28;20038;-65
2022/02/13 05:50:41;;;;;;;6.68;4.50;;;2.90;69.70;;;;;;5088329;28;20024;-65
2022/02/13 05:53:07;;;;;;;8.35;5.50;;;2.90;69.90;;;;;;5070629;28;20016;-65
2022/02/13 05:55:33;;;;;;;9.15;5.05;;;2.90;69.80;;;;;;5069343;28;20032;-65
2022/02/13 05:57:59;;;;;;;8.20;4.85;;;2.90;69.90;;;;;;5069022;28;20090;-65
2022/02/13 06:00:25;;;;;;;9.98;4.93;;;2.90;70.00;;;;;;5070039;28;20112;-65
2022/02/13 06:02:51;;;;;;;7.45;5.00;;;2.90;70.00;;;;;;5068627;28;20098;-65
2022/02/13 06:05:17;;;;;;;7.13;4.60;;;2.80;69.90;;;;;;5070426;28;20020;-65
2022/02/13 06:07:43;;;;;;;11.13;5.50;;;2.90;70.00;;;;;;5069412;28;20495;-66
2022/02/13 06:10:11;;;;;;;9.38;4.82;;;2.90;70.10;;;;;;5070033;28;20142;-65
2022/02/13 06:12:37;;;;;;;7.53;4.65;;;2.90;70.00;;;;;;5070319;28;20029;-65
2022/02/13 06:15:04;;;;;;;10.00;5.30;;;2.90;70.00;;;;;;5070498;28;20032;-65
2022/02/13 06:17:30;;;;;;;8.48;4.97;;;2.90;70.00;;;;;;5069989;28;20041;-66
2022/02/13 06:19:56;;;;;;;6.93;4.45;;;2.90;70.00;;;;;;5074330;28;20031;-66
2022/02/13 06:22:22;;;;;;;9.02;4.78;;;2.90;70.00;;;;;;5069930;28;20028;-66
2022/02/13 06:24:48;;;;;;;11.40;5.65;;;2.80;70.00;;;;;;5066924;28;20033;-65
2022/02/13 06:27:14;;;;;;;7.72;4.80;;;2.90;70.80;;;;;;5067505;28;20040;-65
2022/02/13 06:29:39;;;;;;;11.15;4.53;;;2.90;70.10;;;;;;5068404;28;20036;-65
2022/02/13 06:32:05;;;;;;;8.10;4.85;;;2.90;70.20;;;;;;5048228;28;20051;-65
2022/02/13 06:34:31;;;;;;;7.38;4.70;;;2.80;70.20;;;;;;5066182;28;20275;-65
2022/02/13 06:36:57;;;;;;;8.25;5.10;;;2.80;70.10;;;;;;5069002;28;20127;-66
2022/02/13 06:39:22;;;;;;;7.05;4.82;;;2.80;70.20;;;;;;5067122;28;20020;-65
2022/02/13 06:41:48;;;;;;;9.85;4.65;;;2.80;70.20;;;;;;5068232;28;20071;-65
2022/02/13 06:44:14;;;;;;;10.43;5.50;;;2.80;70.30;;;;;;5066865;28;20020;-65
2022/02/13 06:46:40;;;;;;;8.63;5.07;;;2.80;70.50;;;;;;5071678;28;20559;-66
2022/02/13 06:49:07;;;;;;;10.80;5.22;;;2.80;70.50;;;;;;5065298;28;20052;-66
2022/02/13 06:51:33;;;;;;;10.05;5.00;;;2.80;70.60;;;;;;5068319;28;20043;-65
2022/02/13 06:53:59;;;;;;;9.02;5.30;;;2.80;70.50;;;;;;5067230;28;20036;-66
2022/02/13 06:56:25;;;;;;;8.60;4.60;;;2.80;70.60;;;;;;5068877;28;20093;-66
2022/02/13 06:58:50;;;;;;;8.73;5.63;;;2.80;70.70;;;;;;5067984;28;20462;-65
2022/02/13 07:01:16;;;;;;;7.97;5.18;;;2.80;70.80;;;;;;5073488;28;20025;-65
2022/02/13 07:03:42;;;;;;;9.00;5.20;;;2.80;70.70;;;;;;5079516;28;20401;-65
2022/02/13 07:06:08;;;;;;;9.70;5.40;;;2.80;70.70;;;;;;5069143;28;20033;-65
2022/02/13 07:08:34;;;;;;;7.95;4.90;;;2.80;70.80;;;;;;5067629;28;20545;-66
2022/02/13 07:11:01;;;;;;;9.20;5.32;;;2.80;70.80;;;;;;5068760;28;20031;-66
2022/02/13 07:13:27;;;;;;;9.13;5.57;;;2.80;70.90;;;;;;5087703;28;20024;-66
2022/02/13 07:15:53;;;;;;;9.32;5.13;;;2.90;71.00;;;;;;5087975;28;20028;-66
2022/02/13 07:18:19;;;;;;;12.55;6.68;;;2.80;71.00;;;;;;5073871;28;20431;-67
2022/02/13 07:20:45;;;;;;;8.85;5.03;;;2.90;71.20;;;;;;5068112;28;20037;-66
2022/02/13 07:23:11;;;;;;;8.45;5.28;;;2.80;71.20;;;;;;5070280;28;20134;-66
2022/02/13 07:25:36;;;;;;;9.60;4.50;;;2.90;71.30;;;;;;5079408;28;20028;-66
2022/02/13 07:28:58;;;;;;;8.40;5.10;;;2.90;71.40;;;;;;5089005;28;20103;-66
2022/02/13 07:30:48;;;;;;;7.38;4.97;;;2.90;71.20;;;;;;5076975;28;20135;-66
2022/02/13 07:33:13;;;;;;;7.53;4.85;;;3.00;71.20;;;;;;5067511;28;20045;-66
2022/02/13 07:35:40;;;;;;;8.45;5.20;;;3.00;71.20;;;;;;5070820;28;20499;-66
2022/02/13 07:38:06;;;;;;;10.88;5.10;;;3.00;71.20;;;;;;5066617;28;20024;-66
2022/02/13 07:40:32;;;;;;;8.02;4.40;;;3.10;71.10;;;;;;5071588;28;20036;-66
2022/02/13 07:42:58;;;;;;;7.68;5.15;;;3.10;71.00;;;;;;5070014;28;20037;-66
2022/02/13 07:45:23;;;;;;;10.75;5.32;;;3.10;70.80;;;;;;5066384;28;20448;-66
2022/02/13 07:47:49;;;;;;;9.63;5.47;;;3.10;70.70;;;;;;5067932;28;20075;-66
2022/02/13 07:50:15;;;;;;;8.18;5.43;;;3.20;70.70;;;;;;5064694;28;20033;-66
2022/02/13 07:52:41;;;;;;;8.55;5.10;;;3.20;71.10;;;;;;5070799;28;20032;-66
2022/02/13 07:55:07;;;;;;;9.70;4.70;;;3.30;70.40;;;;;;5080567;28;20111;-66
2022/02/13 07:57:33;;;;;;;7.75;5.07;;;3.30;70.40;;;;;;5047148;28;20040;-66
2022/02/13 07:59:58;;;;;;;8.43;5.60;;;3.30;70.30;;;;;;5067329;28;20102;-66
2022/02/13 08:02:24;;;;;;;10.52;5.15;;;3.40;70.00;;;;;;5068264;28;20027;-66
2022/02/13 08:04:49;;;;;;;7.35;4.90;;;3.40;69.90;;;;;;5067987;28;20032;-66
2022/02/13 08:07:15;;;;;;;8.05;5.22;;;3.40;70.10;;;;;;5068767;28;20036;-66
2022/02/13 08:09:42;;;;;;;11.32;5.13;;;3.50;70.10;;;;;;5067434;28;20086;-66
2022/02/13 08:12:09;;;;;;;8.25;5.10;;;3.50;69.80;;;;;;5067900;28;20102;-66
2022/02/13 08:14:35;;;;;;;11.90;6.30;;;3.60;69.80;;;;;;5066243;28;20472;-66
2022/02/13 08:17:01;;;;;;;8.52;4.90;;;3.60;69.70;;;;;;5060881;28;20048;-66
2022/02/13 08:19:27;;;;;;;9.57;5.28;;;3.60;69.70;;;;;;5051185;28;20093;-66
2022/02/13 08:21:53;;;;;;;9.60;5.20;;;3.70;69.60;;;;;;5064752;28;20512;-66
2022/02/13 08:24:19;;;;;;;6.93;5.10;;;3.70;69.40;;;;;;5064470;28;20531;-66
2022/02/13 08:26:45;;;;;;;6.85;4.65;;;3.80;69.40;;;;;;5068677;28;20043;-66
2022/02/13 08:29:11;;;;;;;9.23;5.50;;;3.80;69.30;;;;;;5064583;28;20473;-66
2022/02/13 08:31:36;;;;;;;6.85;4.80;;;3.80;69.20;;;;;;5064011;28;20407;-67
2022/02/13 08:34:02;;;;;;;6.38;4.53;;;3.90;69.10;;;;;;5057065;28;20040;-66
2022/02/13 08:36:28;;;;;;;8.18;5.10;;;3.90;69.20;;;;;;5071732;28;20519;-66
2022/02/13 08:38:54;;;;;;;9.18;5.57;;;4.00;69.10;;;;;;5073575;28;20449;-67
2022/02/13 08:41:19;;;;;;;11.15;5.32;;;4.00;69.10;;;;;;5069927;28;20033;-66
2022/02/13 08:43:48;;;;;;;9.43;5.80;;;4.00;69.70;;;;;;5062490;28;20390;-67
2022/02/13 08:46:14;;;;;;;8.70;5.20;;;4.10;69.00;;;;;;5063136;28;20021;-67
2022/02/13 08:48:42;;;;;;;7.38;5.22;;;4.20;69.00;;;;;;5070133;28;20021;-67
2022/02/13 08:51:07;;;;;;;7.00;5.32;;;4.20;68.90;;;;;;5071571;28;20467;-67
2022/02/13 08:53:33;;;;;;;8.55;5.38;;;4.20;68.70;;;;;;5072240;28;20033;-67
2022/02/13 08:55:58;;;;;;;7.72;5.20;;;4.30;68.80;;;;;;5074794;28;20040;-67
2022/02/13 08:58:24;;;;;;;7.15;5.38;;;4.30;68.80;;;;;;5074634;28;20064;-67
2022/02/13 09:00:50;;;;;;;7.72;5.43;;;4.30;68.80;;;;;;5072417;28;20017;-67
2022/02/13 09:03:16;;;;;;;7.72;5.40;;;4.30;68.80;;;;;;5070124;28;20036;-67
2022/02/13 09:05:42;;;;;;;8.32;5.72;;;4.30;68.50;;;;;;5071454;28;20024;-67
2022/02/13 09:08:08;;;;;;;8.10;4.70;;;4.40;68.40;;;;;;5071443;28;20243;-67
2022/02/13 09:10:34;;;;;;;9.20;5.97;;;4.40;68.50;;;;;;5070294;28;20043;-67
2022/02/13 09:13:00;;;;;;;7.85;5.00;;;4.40;68.60;;;;;;5071221;28;20033;-67
2022/02/13 09:15:28;;;;;;;9.65;5.75;;;4.50;68.50;;;;;;5068547;28;20043;-67
2022/02/13 09:17:54;;;;;;;8.77;5.15;;;4.50;68.30;;;;;;5070950;28;20025;-67
2022/02/13 09:20:22;;;;;;;7.97;4.78;;;4.60;68.40;;;;;;5072681;28;20033;-66
2022/02/13 09:22:48;;;;;;;7.97;5.30;;;4.70;68.40;;;;;;5080832;28;20032;-66
2022/02/13 09:25:14;;;;;;;7.63;4.93;;;4.70;68.00;;;;;;5071171;28;20618;-66
2022/02/13 09:27:39;;;;;;;12.30;6.45;;;4.80;67.90;;;;;;5071405;28;20476;-66
2022/02/13 09:30:07;;;;;;;9.07;6.13;;;4.90;68.00;;;;;;5069214;28;20094;-66
2022/02/13 09:32:32;;;;;;;7.78;5.40;;;5.00;67.80;;;;;;5069742;28;20094;-66
2022/02/13 09:34:58;;;;;;;7.45;4.95;;;5.00;67.80;;;;;;5069248;28;20045;-66
2022/02/13 09:37:24;;;;;;;8.57;5.25;;;5.20;67.80;;;;;;5072804;28;20072;-67
2022/02/13 09:39:51;;;;;;;8.45;5.55;;;5.20;67.20;;;;;;5070779;28;20092;-66
2022/02/13 09:42:20;;;;;;;9.68;5.85;;;5.30;66.80;;;;;;5068571;28;20017;-67
2022/02/13 09:44:46;;;;;;;7.40;5.05;;;5.40;66.90;;;;;;5068149;28;20032;-67
2022/02/13 09:47:13;;;;;;;9.85;5.75;;;5.40;67.00;;;;;;5061739;28;20075;-67
2022/02/13 09:49:39;;;;;;;5.88;4.78;;;5.50;66.50;;;;;;5061824;28;20025;-67
2022/02/13 09:52:07;;;;;;;6.80;5.00;;;5.60;66.40;;;;;;5065076;28;20116;-67
2022/02/13 09:54:35;;;;;;;8.05;5.32;;;5.60;66.60;;;;;;5065569;28;20050;-67
2022/02/13 10:00:01;;;;;;;8.32;5.38;;;5.70;66.10;;;;;;5056422;28;20437;-67
2022/02/13 10:02:36;;;;;;;9.27;5.88;;;5.80;66.50;;;;;;5054704;28;20021;-67
2022/02/13 10:05:04;;;;;;;8.20;5.07;;;5.90;65.70;;;;;;5059922;28;20446;-67
2022/02/13 10:07:35;;;;;;;10.35;6.28;;;5.90;65.60;;;;;;5059512;28;20025;-67
2022/02/13 10:10:02;;;;;;;10.18;6.25;;;6.00;65.20;;;;;;5068561;28;20028;-67
2022/02/13 10:12:30;;;;;;;8.55;5.63;;;6.00;64.90;;;;;;5066238;28;20032;-67
2022/02/13 10:14:55;;;;;;;10.85;5.30;;;6.10;65.00;;;;;;5065838;28;20089;-67
2022/02/13 10:17:21;;;;;;;5.97;4.60;;;6.10;65.10;;;;;;5064621;28;20013;-67
2022/02/13 10:19:53;;;;;;;7.13;5.65;;;6.20;64.80;;;;;;5068230;28;20116;-67
2022/02/13 10:22:34;;;;;;;6.45;5.10;;;6.20;64.30;;;;;;5049990;28;20476;-67
2022/02/13 10:25:20;;;;;;;6.25;4.78;;;6.30;64.20;;;;;;5063754;28;20445;-67
2022/02/13 10:27:48;;;;;;;8.65;5.72;;;6.40;64.50;;;;;;5059681;28;20031;-67
2022/02/13 10:30:33;;;;;;;7.28;5.07;;;6.40;63.70;;;;;;5055947;28;20479;-67
2022/02/13 10:33:16;;;;;;;7.60;5.35;;;6.50;64.00;;;;;;5069515;28;20495;-67
2022/02/13 10:35:42;;;;;;;7.13;4.90;;;6.50;63.90;;;;;;5067922;28;20082;-66
2022/02/13 10:38:08;;;;;;;7.30;4.95;;;6.60;63.90;;;;;;5066801;28;20027;-67
2022/02/13 10:41:27;;;;;;;7.35;5.05;;;6.70;63.60;;;;;;5068226;27;20819;-65
2022/02/13 10:43:59;;;;;;;9.55;5.57;;;6.80;63.50;;;;;;5053850;28;20032;-65
2022/02/13 10:46:29;;;;;;;7.35;5.35;;;6.90;63.60;;;;;;5050969;28;20095;-66
2022/02/13 10:52:38;;;;;;;7.25;5.38;;;7.10;62.20;;;;;;5063727;28;20369;-65
2022/02/13 10:55:04;;;;;;;8.57;5.38;;;7.10;63.10;;;;;;5046245;28;20040;-66
2022/02/13 10:59:45;;;;;;;6.50;4.60;;;7.30;61.80;;;;;;5063936;28;20357;-66
2022/02/13 11:02:12;;;;;;;5.15;4.10;;;7.30;62.70;;;;;;5045722;28;20557;-66
2022/02/13 11:04:38;;;;;;;5.68;5.00;;;7.50;62.90;;;;;;5044014;28;20102;-66
2022/02/13 11:07:04;;;;;;;6.57;5.18;;;7.60;62.10;;;;;;5044006;28;20044;-67
2022/02/13 11:09:31;;;;;;;6.75;4.93;;;7.70;61.50;;;;;;5044138;28;20028;-67
2022/02/13 11:11:57;;;;;;;6.68;4.60;;;7.80;61.40;;;;;;5072892;28;20018;-67
2022/02/13 11:14:40;;;;;;;6.20;4.55;;;8.00;61.40;;;;;;5042688;28;20021;-67
2022/02/13 12:01:40;;;;;;;6.47;4.57;;;8.50;62.10;;;;;;5127451;27;20108;-65
2022/02/13 12:06:54;;;;;;;6.38;4.60;;;8.60;62.90;;;;;;5070032;27;1307634;-67
2022/02/13 12:09:24;;;;;;;5.35;4.47;;;8.70;63.50;;;;;;5090545;28;20060;-66
2022/02/13 12:11:54;;;;;;;7.38;4.57;;;8.90;63.90;;;;;;5097834;28;20028;-66
2022/02/13 12:14:21;;;;;;;7.30;4.43;;;9.20;63.80;;;;;;5097470;28;20032;-67
2022/02/13 12:16:54;;;;;;;6.88;4.55;;;9.60;63.00;;;;;;5106458;28;20073;-67
2022/02/13 12:19:46;;;;;;;7.95;4.78;;;10.10;61.40;;;;;;5069603;28;20032;-67
2022/02/13 13:48:35;;;;;;;6.70;3.75;;;12.10;52.10;;;;;;5084460;27;20106;-65
2022/02/13 13:51:01;;;;;;;6.32;4.28;;;11.80;53.30;;;;;;5083709;28;20046;-66
2022/02/13 17:49:02;;;;;;;13.35;5.22;;;9.10;68.00;;;;;;5123495;27;20929;-67
2022/02/13 17:51:31;;;;;;;10.15;5.07;;;9.00;69.70;;;;;;5120220;27;20030;-66
2022/02/13 17:53:57;;;;;;;10.30;5.20;;;9.00;70.50;;;;;;5101479;28;20028;-67
2022/02/13 17:56:23;;;;;;;7.05;4.80;;;9.20;70.40;;;;;;5126259;27;20008;-66
2022/02/13 17:58:49;;;;;;;8.35;4.85;;;9.30;70.30;;;;;;5121073;28;20397;-66
2022/02/13 18:01:18;;;;;;;7.72;5.20;;;9.50;69.80;;;;;;5096055;28;20032;-70
2022/02/13 18:03:44;;;;;;;10.32;4.97;;;9.60;69.00;;;;;;5109015;28;20027;-66
2022/02/13 18:06:10;;;;;;;7.80;4.78;;;9.70;68.60;;;;;;5111221;27;20049;-66
2022/02/13 18:08:36;;;;;;;8.98;4.55;;;9.80;68.40;;;;;;5120004;27;20035;-66
2022/02/13 18:13:44;;;;;;;9.68;4.68;;;9.90;66.90;;;;;;5124199;27;20113;-66
2022/02/13 18:16:10;;;;;;;8.32;4.18;;;9.90;66.70;;;;;;5109554;28;20475;-66
2022/02/13 18:18:36;;;;;;;9.93;5.30;;;9.90;66.80;;;;;;5108896;28;20031;-67
2022/02/13 18:21:04;;;;;;;8.57;4.88;;;9.90;66.50;;;;;;5109356;28;20506;-67
2022/02/13 18:23:30;;;;;;;6.03;4.47;;;10.00;66.60;;;;;;5091558;28;20043;-66
2022/02/13 18:25:55;;;;;;;9.98;4.72;;;10.00;66.40;;;;;;5092101;28;20416;-66
2022/02/13 18:28:21;;;;;;;7.28;4.55;;;10.00;66.20;;;;;;5086261;28;20025;-67
2022/02/13 18:30:47;;;;;;;7.95;4.60;;;10.10;66.00;;;;;;5105684;28;20810;-67
2022/02/13 18:33:13;;;;;;;9.90;4.75;;;10.10;65.40;;;;;;5103935;28;20020;-67
2022/02/13 18:35:44;;;;;;;11.32;5.50;;;10.10;65.30;;;;;;5105556;28;20040;-67
2022/02/13 18:38:11;;;;;;;8.02;4.90;;;10.10;64.80;;;;;;5106080;28;20031;-67
2022/02/13 18:40:38;;;;;;;10.75;5.00;;;10.10;64.80;;;;;;5106582;28;20052;-67
2022/02/13 18:43:04;;;;;;;8.43;4.57;;;10.10;64.90;;;;;;5098297;28;20043;-67
2022/02/13 18:45:30;;;;;;;10.05;4.53;;;10.10;64.70;;;;;;5080975;28;20034;-67
2022/02/13 18:47:56;;;;;;;7.53;4.50;;;10.10;64.40;;;;;;5102035;28;20035;-67
2022/02/13 18:50:22;;;;;;;9.15;5.10;;;10.10;64.60;;;;;;5099969;28;20090;-67
2022/02/13 18:52:48;;;;;;;6.05;4.28;;;10.10;64.60;;;;;;5100268;28;20056;-63
2022/02/13 18:55:17;;;;;;;9.88;4.82;;;10.10;64.70;;;;;;5087012;28;20027;-64
2022/02/13 18:57:46;;;;;;;10.43;5.57;;;10.10;64.90;;;;;;5105384;28;20023;-63
2022/02/13 19:00:13;;;;;;;9.52;5.90;;;10.10;64.90;;;;;;5103320;28;20069;-64
2022/02/13 19:02:38;;;;;;;10.00;4.70;;;10.10;64.60;;;;;;5105658;28;20137;-63
2022/02/13 19:05:05;;;;;;;8.38;5.20;;;10.10;64.70;;;;;;5104600;28;20099;-64
2022/02/13 19:07:31;;;;;;;9.68;5.32;;;10.10;64.60;;;;;;5103976;28;20081;-64
2022/02/13 19:09:57;;;;;;;8.82;4.90;;;10.10;64.60;;;;;;5087592;28;20036;-63